sensor_id;sensor_type;location;lat;lon;timestamp;temperature;humidity
27741;DHT22;15134;48.768;9.184;2024-01-27T00:00:07;6.50;99.90
27741;DHT22;15134;48.768;9.184;2024-01-27T00:02:34;6.30;99.90
27741;DHT22;15134;48.768;9.184;2024-01-27T00:05:00;6.20;99.90
27741;DHT22;15134;48.768;9.184;2024-01-27T00:07:26;6.30;99.90
27741;DHT22;15134;48.768;9.184;2024-01-27T00:09:57;6.30;99.90
27741;DHT22;15134;48.768;9.184;2024-01-27T00:12:24;6.40;99.90
27741;DHT22;15134;48.768;9.184;2024-01-27T00:14:50;6.40;99.90
27741;DHT22;15134;48.768;9.184;2024-01-27T00:17:16;6.40;99.90
27741;DHT22;15134;48.768;9.184;2024-01-27T00:19:42;6.30;99.90
27741;DHT22;15134;48.768;9.184;2024-01-27T00:22:08;6.20;99.90
27741;DHT22;15134;48.768;9.184;2024-01-27T00:24:34;6.20;99.90
27741;DHT22;15134;48.768;9.184;2024-01-27T00:27:00;6.10;99.90
27741;DHT22;15134;48.768;9.184;2024-01-27T00:29:26;6.10;99.90
27741;DHT22;15134;48.768;9.184;2024-01-27T00:31:51;6.10;99.90
27741;DHT22;15134;48.768;9.184;2024-01-27T00:34:20;6.10;99.90
27741;DHT22;15134;48.768;9.184;2024-01-27T00:36:45;6.00;99.90
27741;DHT22;15134;48.768;9.184;2024-01-27T00:39:23;6.00;99.90
27741;DHT22;15134;48.768;9.184;2024-01-27T00:41:49;6.00;99.90
27741;DHT22;15134;48.768;9.184;2024-01-27T00:44:14;6.00;99.90
27741;DHT22;15134;48.768;9.184;2024-01-27T00:46:40;5.90;99.90
27741;DHT22;15134;48.768;9.184;2024-01-27T00:49:06;5.90;99.90
27741;DHT22;15134;48.768;9.184;2024-01-27T00:51:32;5.90;99.90
27741;DHT22;15134;48.768;9.184;2024-01-27T00:53:58;5.80;99.90
27741;DHT22;15134;48.768;9.184;2024-01-27T00:56:24;5.80;99.90
27741;DHT22;15134;48.768;9.184;2024-01-27T00:58:49;5.80;99.90
27741;DHT22;15134;48.768;9.184;2024-01-27T01:01:15;5.70;99.90
27741;DHT22;15134;48.768;9.184;2024-01-27T01:03:41;5.70;99.90
27741;DHT22;15134;48.768;9.184;2024-01-27T01:06:06;5.70;99.90
27741;DHT22;15134;48.768;9.184;2024-01-27T01:08:32;5.70;99.90
27741;DHT22;15134;48.768;9.184;2024-01-27T01:10:58;5.60;99.90
27741;DHT22;15134;48.768;9.184;2024-01-27T01:13:24;5.60;99.90
27741;DHT22;15134;48.768;9.184;2024-01-27T01:15:50;5.70;99.90
27741;DHT22;15134;48.768;9.184;2024-01-27T01:18:15;5.80;99.90
27741;DHT22;15134;48.768;9.184;2024-01-27T01:20:41;5.80;99.90
27741;DHT22;15134;48.768;9.184;2024-01-27T01:23:07;5.80;99.90
27741;DHT22;15134;48.768;9.184;2024-01-27T01:25:33;5.70;99.90
27741;DHT22;15134;48.768;9.184;2024-01-27T01:27:58;5.70;99.90
27741;DHT22;15134;48.768;9.184;2024-01-27T01:30:24;5.70;99.90
27741;DHT22;15134;48.768;9.184;2024-01-27T01:32:50;5.70;99.90
27741;DHT22;15134;48.768;9.184;2024-01-27T01:35:16;5.70;99.90
27741;DHT22;15134;48.768;9.184;2024-01-27T01:37:42;5.70;99.90
27741;DHT22;15134;48.768;9.184;2024-01-27T01:40:08;5.80;99.90
27741;DHT22;15134;48.768;9.184;2024-01-27T01:42:34;5.80;99.90
27741;DHT22;15134;48.768;9.184;2024-01-27T01:45:00;5.70;99.90
27741;DHT22;15134;48.768;9.184;2024-01-27T01:47:26;5.70;99.90
27741;DHT22;15134;48.768;9.184;2024-01-27T01:49:52;5.70;99.90
27741;DHT22;15134;48.768;9.184;2024-01-27T01:52:19;5.80;99.90
27741;DHT22;15134;48.768;9.184;2024-01-27T01:54:49;5.80;99.90
27741;DHT22;15134;48.768;9.184;2024-01-27T01:57:15;5.80;99.90
27741;DHT22;15134;48.768;9.184;2024-01-27T01:59:41;5.80;99.90
27741;DHT22;15134;48.768;9.184;2024-01-27T02:02:08;5.70;99.90
27741;DHT22;15134;48.768;9.184;2024-01-27T02:04:44;5.70;99.90
27741;DHT22;15134;48.768;9.184;2024-01-27T02:07:11;5.60;99.90
27741;DHT22;15134;48.768;9.184;2024-01-27T02:09:37;5.50;99.90
27741;DHT22;15134;48.768;9.184;2024-01-27T02:12:03;5.50;99.90
27741;DHT22;15134;48.768;9.184;2024-01-27T02:14:29;5.40;99.90
27741;DHT22;15134;48.768;9.184;2024-01-27T02:16:56;5.20;99.90
27741;DHT22;15134;48.768;9.184;2024-01-27T02:19:22;5.00;99.90
27741;DHT22;15134;48.768;9.184;2024-01-27T02:21:48;5.00;99.90
27741;DHT22;15134;48.768;9.184;2024-01-27T02:24:14;4.90;99.90
27741;DHT22;15134;48.768;9.184;2024-01-27T02:26:40;5.00;99.90
27741;DHT22;15134;48.768;9.184;2024-01-27T02:29:06;5.00;99.90
27741;DHT22;15134;48.768;9.184;2024-01-27T02:31:31;5.00;99.90
27741;DHT22;15134;48.768;9.184;2024-01-27T02:33:57;5.10;99.90
27741;DHT22;15134;48.768;9.184;2024-01-27T02:36:23;5.10;99.90
27741;DHT22;15134;48.768;9.184;2024-01-27T02:38:51;5.10;99.90
27741;DHT22;15134;48.768;9.184;2024-01-27T02:41:16;5.00;99.90
27741;DHT22;15134;48.768;9.184;2024-01-27T02:43:42;5.00;99.90
27741;DHT22;15134;48.768;9.184;2024-01-27T02:46:11;5.00;99.90
27741;DHT22;15134;48.768;9.184;2024-01-27T02:48:43;5.10;99.90
27741;DHT22;15134;48.768;9.184;2024-01-27T02:51:09;5.10;99.90
27741;DHT22;15134;48.768;9.184;2024-01-27T02:53:35;5.10;99.90
27741;DHT22;15134;48.768;9.184;2024-01-27T02:56:01;5.10;99.90
27741;DHT22;15134;48.768;9.184;2024-01-27T02:58:27;5.10;99.90
27741;DHT22;15134;48.768;9.184;2024-01-27T03:00:52;5.10;99.90
27741;DHT22;15134;48.768;9.184;2024-01-27T03:03:18;5.10;99.90
27741;DHT22;15134;48.768;9.184;2024-01-27T03:05:44;5.20;99.90
27741;DHT22;15134;48.768;9.184;2024-01-27T03:08:10;5.20;99.90
27741;DHT22;15134;48.768;9.184;2024-01-27T03:10:36;5.20;99.90
27741;DHT22;15134;48.768;9.184;2024-01-27T03:13:01;5.20;99.90
27741;DHT22;15134;48.768;9.184;2024-01-27T03:15:28;5.10;99.90
27741;DHT22;15134;48.768;9.184;2024-01-27T03:17:54;5.00;99.90
27741;DHT22;15134;48.768;9.184;2024-01-27T03:20:20;5.00;99.90
27741;DHT22;15134;48.768;9.184;2024-01-27T03:22:45;5.00;99.90
27741;DHT22;15134;48.768;9.184;2024-01-27T03:25:11;5.00;99.90
27741;DHT22;15134;48.768;9.184;2024-01-27T03:27:37;5.00;99.90
27741;DHT22;15134;48.768;9.184;2024-01-27T03:30:03;5.00;99.90
27741;DHT22;15134;48.768;9.184;2024-01-27T03:32:30;5.00;99.90
27741;DHT22;15134;48.768;9.184;2024-01-27T03:35:02;5.00;99.90
27741;DHT22;15134;48.768;9.184;2024-01-27T03:37:28;5.00;99.90
27741;DHT22;15134;48.768;9.184;2024-01-27T03:39:54;5.00;99.90
27741;DHT22;15134;48.768;9.184;2024-01-27T03:42:19;5.00;99.90
27741;DHT22;15134;48.768;9.184;2024-01-27T03:44:45;5.00;99.90
27741;DHT22;15134;48.768;9.184;2024-01-27T03:47:11;4.90;99.90
27741;DHT22;15134;48.768;9.184;2024-01-27T03:49:37;4.90;99.90
27741;DHT22;15134;48.768;9.184;2024-01-27T03:52:03;5.00;99.90
27741;DHT22;15134;48.768;9.184;2024-01-27T03:54:29;5.00;99.90
27741;DHT22;15134;48.768;9.184;2024-01-27T03:56:55;4.90;99.90
27741;DHT22;15134;48.768;9.184;2024-01-27T03:59:21;4.90;99.90
27741;DHT22;15134;48.768;9.184;2024-01-27T04:01:47;4.90;99.90
27741;DHT22;15134;48.768;9.184;2024-01-27T04:04:13;4.80;99.90
27741;DHT22;15134;48.768;9.184;2024-01-27T04:06:40;4.80;99.90
27741;DHT22;15134;48.768;9.184;2024-01-27T04:09:06;4.80;99.90
27741;DHT22;15134;48.768;9.184;2024-01-27T04:11:36;4.80;99.90
27741;DHT22;15134;48.768;9.184;2024-01-27T04:14:03;4.70;99.90
27741;DHT22;15134;48.768;9.184;2024-01-27T04:16:30;4.80;99.90
27741;DHT22;15134;48.768;9.184;2024-01-27T04:18:56;4.70;99.90
27741;DHT22;15134;48.768;9.184;2024-01-27T04:21:21;4.70;99.90
27741;DHT22;15134;48.768;9.184;2024-01-27T04:23:47;4.70;99.90
27741;DHT22;15134;48.768;9.184;2024-01-27T04:26:13;4.70;99.90
27741;DHT22;15134;48.768;9.184;2024-01-27T04:28:39;4.70;99.90
27741;DHT22;15134;48.768;9.184;2024-01-27T04:31:05;4.70;99.90
27741;DHT22;15134;48.768;9.184;2024-01-27T04:33:30;4.70;99.90
27741;DHT22;15134;48.768;9.184;2024-01-27T04:35:56;4.60;99.90
27741;DHT22;15134;48.768;9.184;2024-01-27T04:38:22;4.50;99.90
27741;DHT22;15134;48.768;9.184;2024-01-27T04:40:49;4.40;99.90
27741;DHT22;15134;48.768;9.184;2024-01-27T04:43:15;4.40;99.90
27741;DHT22;15134;48.768;9.184;2024-01-27T04:45:42;4.40;99.90
27741;DHT22;15134;48.768;9.184;2024-01-27T04:48:07;4.40;99.90
27741;DHT22;15134;48.768;9.184;2024-01-27T04:50:33;4.30;99.90
27741;DHT22;15134;48.768;9.184;2024-01-27T04:52:59;4.20;99.90
27741;DHT22;15134;48.768;9.184;2024-01-27T04:55:25;4.20;99.90
27741;DHT22;15134;48.768;9.184;2024-01-27T04:57:51;4.30;99.90
27741;DHT22;15134;48.768;9.184;2024-01-27T05:00:17;4.20;99.90
27741;DHT22;15134;48.768;9.184;2024-01-27T05:02:42;4.10;99.90
27741;DHT22;15134;48.768;9.184;2024-01-27T05:05:08;4.10;99.90
27741;DHT22;15134;48.768;9.184;2024-01-27T05:07:34;4.00;99.90
27741;DHT22;15134;48.768;9.184;2024-01-27T05:10:00;4.00;99.90
27741;DHT22;15134;48.768;9.184;2024-01-27T05:12:26;4.00;99.90
27741;DHT22;15134;48.768;9.184;2024-01-27T05:14:52;4.10;99.90
27741;DHT22;15134;48.768;9.184;2024-01-27T05:17:17;4.10;99.90
27741;DHT22;15134;48.768;9.184;2024-01-27T05:19:43;4.10;99.90
27741;DHT22;15134;48.768;9.184;2024-01-27T05:22:09;4.10;99.90
27741;DHT22;15134;48.768;9.184;2024-01-27T05:24:35;4.20;99.90
27741;DHT22;15134;48.768;9.184;2024-01-27T05:27:00;4.20;99.90
27741;DHT22;15134;48.768;9.184;2024-01-27T05:29:28;4.20;99.90
27741;DHT22;15134;48.768;9.184;2024-01-27T05:31:54;4.20;99.90
27741;DHT22;15134;48.768;9.184;2024-01-27T05:34:19;4.20;99.90
27741;DHT22;15134;48.768;9.184;2024-01-27T05:36:47;4.20;99.90
27741;DHT22;15134;48.768;9.184;2024-01-27T05:39:13;4.10;99.90
27741;DHT22;15134;48.768;9.184;2024-01-27T05:41:39;4.10;99.90
27741;DHT22;15134;48.768;9.184;2024-01-27T05:44:05;4.20;99.90
27741;DHT22;15134;48.768;9.184;2024-01-27T05:46:31;4.10;99.90
27741;DHT22;15134;48.768;9.184;2024-01-27T05:48:57;4.20;99.90
27741;DHT22;15134;48.768;9.184;2024-01-27T05:51:27;4.20;99.90
27741;DHT22;15134;48.768;9.184;2024-01-27T05:53:52;4.20;99.90
27741;DHT22;15134;48.768;9.184;2024-01-27T05:56:18;4.20;99.90
27741;DHT22;15134;48.768;9.184;2024-01-27T05:58:47;4.20;99.90
27741;DHT22;15134;48.768;9.184;2024-01-27T06:01:13;4.30;99.90
27741;DHT22;15134;48.768;9.184;2024-01-27T06:03:43;4.30;99.90
27741;DHT22;15134;48.768;9.184;2024-01-27T06:06:08;4.40;99.90
27741;DHT22;15134;48.768;9.184;2024-01-27T06:08:34;4.40;99.90
27741;DHT22;15134;48.768;9.184;2024-01-27T06:11:01;4.40;99.90
27741;DHT22;15134;48.768;9.184;2024-01-27T06:13:26;4.50;99.90
27741;DHT22;15134;48.768;9.184;2024-01-27T06:15:52;4.50;99.90
27741;DHT22;15134;48.768;9.184;2024-01-27T06:18:18;4.50;99.90
27741;DHT22;15134;48.768;9.184;2024-01-27T06:20:44;4.60;99.90
27741;DHT22;15134;48.768;9.184;2024-01-27T06:23:10;4.60;99.90
27741;DHT22;15134;48.768;9.184;2024-01-27T06:25:36;4.50;99.90
27741;DHT22;15134;48.768;9.184;2024-01-27T06:28:01;4.50;99.90
27741;DHT22;15134;48.768;9.184;2024-01-27T06:30:27;4.60;99.90
27741;DHT22;15134;48.768;9.184;2024-01-27T06:32:53;4.60;99.90
27741;DHT22;15134;48.768;9.184;2024-01-27T06:35:18;4.60;99.90
27741;DHT22;15134;48.768;9.184;2024-01-27T06:37:44;4.50;99.90
27741;DHT22;15134;48.768;9.184;2024-01-27T06:40:10;4.40;99.90
27741;DHT22;15134;48.768;9.184;2024-01-27T06:42:36;4.50;99.90
27741;DHT22;15134;48.768;9.184;2024-01-27T06:45:03;4.50;99.90
27741;DHT22;15134;48.768;9.184;2024-01-27T06:47:29;4.50;99.90
27741;DHT22;15134;48.768;9.184;2024-01-27T06:49:55;4.40;99.90
27741;DHT22;15134;48.768;9.184;2024-01-27T06:52:21;4.40;99.90
27741;DHT22;15134;48.768;9.184;2024-01-27T06:54:46;4.40;99.90
27741;DHT22;15134;48.768;9.184;2024-01-27T06:57:19;4.40;99.90
27741;DHT22;15134;48.768;9.184;2024-01-27T06:59:49;4.40;99.90
27741;DHT22;15134;48.768;9.184;2024-01-27T07:02:22;4.40;99.90
27741;DHT22;15134;48.768;9.184;2024-01-27T07:04:48;4.40;99.90
27741;DHT22;15134;48.768;9.184;2024-01-27T07:07:13;4.40;99.90
27741;DHT22;15134;48.768;9.184;2024-01-27T07:09:39;4.40;99.90
27741;DHT22;15134;48.768;9.184;2024-01-27T07:12:05;4.40;99.90
27741;DHT22;15134;48.768;9.184;2024-01-27T07:14:31;4.40;99.90
27741;DHT22;15134;48.768;9.184;2024-01-27T07:16:57;4.50;99.90
27741;DHT22;15134;48.768;9.184;2024-01-27T07:19:23;4.40;99.90
27741;DHT22;15134;48.768;9.184;2024-01-27T07:21:48;4.30;99.90
27741;DHT22;15134;48.768;9.184;2024-01-27T07:24:14;4.30;99.90
27741;DHT22;15134;48.768;9.184;2024-01-27T07:26:40;4.30;99.90
27741;DHT22;15134;48.768;9.184;2024-01-27T07:29:07;4.30;99.90
27741;DHT22;15134;48.768;9.184;2024-01-27T07:31:33;4.30;99.90
27741;DHT22;15134;48.768;9.184;2024-01-27T07:33:59;4.30;99.90
27741;DHT22;15134;48.768;9.184;2024-01-27T07:36:25;4.30;99.90
27741;DHT22;15134;48.768;9.184;2024-01-27T07:38:51;4.30;99.90
27741;DHT22;15134;48.768;9.184;2024-01-27T07:41:17;4.30;99.90
27741;DHT22;15134;48.768;9.184;2024-01-27T07:43:43;4.20;99.90
27741;DHT22;15134;48.768;9.184;2024-01-27T07:46:08;4.20;99.90
27741;DHT22;15134;48.768;9.184;2024-01-27T07:48:34;4.20;99.90
27741;DHT22;15134;48.768;9.184;2024-01-27T07:51:00;4.20;99.90
27741;DHT22;15134;48.768;9.184;2024-01-27T07:53:26;4.20;99.90
27741;DHT22;15134;48.768;9.184;2024-01-27T07:55:52;4.40;99.90
27741;DHT22;15134;48.768;9.184;2024-01-27T07:58:19;4.40;99.90
27741;DHT22;15134;48.768;9.184;2024-01-27T08:00:45;4.40;99.90
27741;DHT22;15134;48.768;9.184;2024-01-27T08:03:11;4.50;99.90
27741;DHT22;15134;48.768;9.184;2024-01-27T08:05:36;4.60;99.90
27741;DHT22;15134;48.768;9.184;2024-01-27T08:08:02;4.60;99.90
27741;DHT22;15134;48.768;9.184;2024-01-27T08:10:28;4.60;99.90
27741;DHT22;15134;48.768;9.184;2024-01-27T08:12:54;4.60;99.90
27741;DHT22;15134;48.768;9.184;2024-01-27T08:15:19;4.60;99.90
27741;DHT22;15134;48.768;9.184;2024-01-27T08:17:45;4.60;99.90
27741;DHT22;15134;48.768;9.184;2024-01-27T08:20:11;4.60;99.90
27741;DHT22;15134;48.768;9.184;2024-01-27T08:22:37;4.70;99.90
27741;DHT22;15134;48.768;9.184;2024-01-27T08:25:03;4.70;99.90
27741;DHT22;15134;48.768;9.184;2024-01-27T08:27:29;4.70;99.90
27741;DHT22;15134;48.768;9.184;2024-01-27T08:29:55;4.70;99.90
27741;DHT22;15134;48.768;9.184;2024-01-27T08:32:21;4.70;99.90
27741;DHT22;15134;48.768;9.184;2024-01-27T08:34:46;4.70;99.90
27741;DHT22;15134;48.768;9.184;2024-01-27T08:37:18;4.60;99.90
27741;DHT22;15134;48.768;9.184;2024-01-27T08:39:44;4.60;99.90
27741;DHT22;15134;48.768;9.184;2024-01-27T08:42:11;4.60;99.90
27741;DHT22;15134;48.768;9.184;2024-01-27T08:44:37;4.60;99.90
27741;DHT22;15134;48.768;9.184;2024-01-27T08:47:03;4.60;99.90
27741;DHT22;15134;48.768;9.184;2024-01-27T08:49:29;4.50;99.90
27741;DHT22;15134;48.768;9.184;2024-01-27T08:51:55;4.40;99.90
27741;DHT22;15134;48.768;9.184;2024-01-27T08:54:21;4.40;99.90
27741;DHT22;15134;48.768;9.184;2024-01-27T08:56:47;4.40;99.90
27741;DHT22;15134;48.768;9.184;2024-01-27T08:59:12;4.50;99.90
27741;DHT22;15134;48.768;9.184;2024-01-27T09:01:38;4.60;99.90
27741;DHT22;15134;48.768;9.184;2024-01-27T09:04:04;4.50;99.90
27741;DHT22;15134;48.768;9.184;2024-01-27T09:06:30;4.60;99.90
27741;DHT22;15134;48.768;9.184;2024-01-27T09:08:55;4.60;99.90
27741;DHT22;15134;48.768;9.184;2024-01-27T09:11:21;4.70;99.90
27741;DHT22;15134;48.768;9.184;2024-01-27T09:13:52;4.80;99.90
27741;DHT22;15134;48.768;9.184;2024-01-27T09:16:18;4.80;99.90
27741;DHT22;15134;48.768;9.184;2024-01-27T09:18:45;4.80;99.90
27741;DHT22;15134;48.768;9.184;2024-01-27T09:21:11;4.90;99.90
27741;DHT22;15134;48.768;9.184;2024-01-27T09:23:37;4.80;99.90
27741;DHT22;15134;48.768;9.184;2024-01-27T09:26:04;4.80;99.90
27741;DHT22;15134;48.768;9.184;2024-01-27T09:28:30;4.80;99.90
27741;DHT22;15134;48.768;9.184;2024-01-27T09:30:56;4.80;99.90
27741;DHT22;15134;48.768;9.184;2024-01-27T09:33:22;4.90;99.90
27741;DHT22;15134;48.768;9.184;2024-01-27T09:35:51;4.90;99.90
27741;DHT22;15134;48.768;9.184;2024-01-27T09:38:17;5.00;99.90
27741;DHT22;15134;48.768;9.184;2024-01-27T09:40:43;5.00;99.90
27741;DHT22;15134;48.768;9.184;2024-01-27T09:43:13;5.00;99.90
27741;DHT22;15134;48.768;9.184;2024-01-27T09:45:39;5.00;99.90
27741;DHT22;15134;48.768;9.184;2024-01-27T09:48:06;5.10;99.90
27741;DHT22;15134;48.768;9.184;2024-01-27T09:50:34;5.10;99.90
27741;DHT22;15134;48.768;9.184;2024-01-27T09:53:00;4.90;99.90
27741;DHT22;15134;48.768;9.184;2024-01-27T09:55:26;4.90;99.90
27741;DHT22;15134;48.768;9.184;2024-01-27T09:57:52;4.80;99.90
27741;DHT22;15134;48.768;9.184;2024-01-27T10:00:19;4.80;99.90
27741;DHT22;15134;48.768;9.184;2024-01-27T10:02:46;4.90;99.90
27741;DHT22;15134;48.768;9.184;2024-01-27T10:05:15;5.00;99.90
27741;DHT22;15134;48.768;9.184;2024-01-27T10:07:41;5.10;99.90
27741;DHT22;15134;48.768;9.184;2024-01-27T10:10:07;5.30;99.90
27741;DHT22;15134;48.768;9.184;2024-01-27T10:12:41;5.40;99.90
27741;DHT22;15134;48.768;9.184;2024-01-27T10:15:22;5.50;99.90
27741;DHT22;15134;48.768;9.184;2024-01-27T10:17:49;5.50;99.90
27741;DHT22;15134;48.768;9.184;2024-01-27T10:20:15;5.50;99.90
27741;DHT22;15134;48.768;9.184;2024-01-27T10:22:45;5.50;99.90
27741;DHT22;15134;48.768;9.184;2024-01-27T10:25:11;5.40;99.90
27741;DHT22;15134;48.768;9.184;2024-01-27T10:27:38;5.40;99.90
27741;DHT22;15134;48.768;9.184;2024-01-27T10:30:04;5.40;99.90
27741;DHT22;15134;48.768;9.184;2024-01-27T10:32:31;5.60;99.90
27741;DHT22;15134;48.768;9.184;2024-01-27T10:35:07;5.70;99.90
27741;DHT22;15134;48.768;9.184;2024-01-27T10:37:36;5.90;99.90
27741;DHT22;15134;48.768;9.184;2024-01-27T10:40:06;6.20;99.90
27741;DHT22;15134;48.768;9.184;2024-01-27T10:42:36;6.40;99.90
27741;DHT22;15134;48.768;9.184;2024-01-27T10:45:02;6.70;99.90
27741;DHT22;15134;48.768;9.184;2024-01-27T10:47:31;6.90;99.90
27741;DHT22;15134;48.768;9.184;2024-01-27T10:49:58;7.20;99.90
27741;DHT22;15134;48.768;9.184;2024-01-27T10:52:28;7.30;99.90
27741;DHT22;15134;48.768;9.184;2024-01-27T10:55:01;7.20;99.90
27741;DHT22;15134;48.768;9.184;2024-01-27T10:57:33;7.30;99.90
27741;DHT22;15134;48.768;9.184;2024-01-27T11:00:00;7.30;99.90
27741;DHT22;15134;48.768;9.184;2024-01-27T11:02:28;7.40;99.90
27741;DHT22;15134;48.768;9.184;2024-01-27T11:05:00;7.50;99.90
27741;DHT22;15134;48.768;9.184;2024-01-27T11:07:26;7.70;99.90
27741;DHT22;15134;48.768;9.184;2024-01-27T11:09:52;7.80;99.90
27741;DHT22;15134;48.768;9.184;2024-01-27T11:12:19;7.90;99.90
27741;DHT22;15134;48.768;9.184;2024-01-27T11:14:47;8.10;99.90
27741;DHT22;15134;48.768;9.184;2024-01-27T11:17:17;8.20;99.90
27741;DHT22;15134;48.768;9.184;2024-01-27T11:19:44;8.30;99.90
27741;DHT22;15134;48.768;9.184;2024-01-27T11:24:50;8.60;99.90
27741;DHT22;15134;48.768;9.184;2024-01-27T11:27:15;8.70;99.90
27741;DHT22;15134;48.768;9.184;2024-01-27T11:29:47;8.80;99.90
27741;DHT22;15134;48.768;9.184;2024-01-27T11:32:14;8.90;99.90
27741;DHT22;15134;48.768;9.184;2024-01-27T11:34:47;8.90;99.90
27741;DHT22;15134;48.768;9.184;2024-01-27T11:37:16;9.00;99.90
27741;DHT22;15134;48.768;9.184;2024-01-27T11:39:43;9.00;99.90
27741;DHT22;15134;48.768;9.184;2024-01-27T11:42:10;9.00;99.90
27741;DHT22;15134;48.768;9.184;2024-01-27T11:44:40;9.10;99.90
27741;DHT22;15134;48.768;9.184;2024-01-27T11:47:17;9.10;99.90
27741;DHT22;15134;48.768;9.184;2024-01-27T11:49:50;9.10;99.90
27741;DHT22;15134;48.768;9.184;2024-01-27T11:52:17;9.10;99.90
27741;DHT22;15134;48.768;9.184;2024-01-27T11:54:44;9.10;99.90
27741;DHT22;15134;48.768;9.184;2024-01-27T11:57:09;9.10;99.90
27741;DHT22;15134;48.768;9.184;2024-01-27T11:59:35;9.20;99.90
27741;DHT22;15134;48.768;9.184;2024-01-27T12:02:02;9.20;99.90
27741;DHT22;15134;48.768;9.184;2024-01-27T12:04:28;9.20;99.90
27741;DHT22;15134;48.768;9.184;2024-01-27T12:06:55;9.20;99.90
27741;DHT22;15134;48.768;9.184;2024-01-27T12:09:20;9.30;99.90
27741;DHT22;15134;48.768;9.184;2024-01-27T12:11:48;9.30;99.90
27741;DHT22;15134;48.768;9.184;2024-01-27T12:14:13;9.30;99.90
27741;DHT22;15134;48.768;9.184;2024-01-27T12:16:40;9.30;99.90
27741;DHT22;15134;48.768;9.184;2024-01-27T12:19:09;9.30;99.90
27741;DHT22;15134;48.768;9.184;2024-01-27T12:21:36;9.30;99.90
27741;DHT22;15134;48.768;9.184;2024-01-27T12:24:01;9.40;99.90
27741;DHT22;15134;48.768;9.184;2024-01-27T12:26:30;9.50;99.90
27741;DHT22;15134;48.768;9.184;2024-01-27T12:28:56;9.50;99.90
27741;DHT22;15134;48.768;9.184;2024-01-27T12:31:23;9.50;99.90
27741;DHT22;15134;48.768;9.184;2024-01-27T12:33:54;9.60;99.90
27741;DHT22;15134;48.768;9.184;2024-01-27T12:36:21;9.70;99.90
27741;DHT22;15134;48.768;9.184;2024-01-27T12:38:57;9.50;99.90
27741;DHT22;15134;48.768;9.184;2024-01-27T12:41:27;9.40;99.90
27741;DHT22;15134;48.768;9.184;2024-01-27T12:43:54;9.40;99.90
27741;DHT22;15134;48.768;9.184;2024-01-27T12:46:20;9.40;99.90
27741;DHT22;15134;48.768;9.184;2024-01-27T12:48:46;9.20;99.90
27741;DHT22;15134;48.768;9.184;2024-01-27T12:51:12;9.20;99.90
27741;DHT22;15134;48.768;9.184;2024-01-27T12:53:42;9.30;99.90
27741;DHT22;15134;48.768;9.184;2024-01-27T12:56:13;9.30;99.90
27741;DHT22;15134;48.768;9.184;2024-01-27T12:58:40;9.40;99.90
27741;DHT22;15134;48.768;9.184;2024-01-27T13:01:07;9.40;99.90
27741;DHT22;15134;48.768;9.184;2024-01-27T13:03:33;9.40;99.90
27741;DHT22;15134;48.768;9.184;2024-01-27T13:06:00;9.30;99.90
27741;DHT22;15134;48.768;9.184;2024-01-27T13:08:26;9.30;99.90
27741;DHT22;15134;48.768;9.184;2024-01-27T13:10:51;9.40;99.90
27741;DHT22;15134;48.768;9.184;2024-01-27T13:13:17;9.50;99.90
27741;DHT22;15134;48.768;9.184;2024-01-27T13:15:43;9.50;99.90
27741;DHT22;15134;48.768;9.184;2024-01-27T13:18:09;9.50;99.90
27741;DHT22;15134;48.768;9.184;2024-01-27T13:20:36;9.50;99.90
27741;DHT22;15134;48.768;9.184;2024-01-27T13:23:02;9.40;99.90
27741;DHT22;15134;48.768;9.184;2024-01-27T13:25:28;9.40;99.90
27741;DHT22;15134;48.768;9.184;2024-01-27T13:27:53;9.40;99.90
27741;DHT22;15134;48.768;9.184;2024-01-27T13:30:19;9.40;99.90
27741;DHT22;15134;48.768;9.184;2024-01-27T13:32:45;9.40;99.90
27741;DHT22;15134;48.768;9.184;2024-01-27T13:35:11;9.40;99.90
27741;DHT22;15134;48.768;9.184;2024-01-27T13:37:37;9.30;99.90
27741;DHT22;15134;48.768;9.184;2024-01-27T13:40:04;9.10;99.90
27741;DHT22;15134;48.768;9.184;2024-01-27T13:42:30;9.10;99.90
27741;DHT22;15134;48.768;9.184;2024-01-27T13:44:56;9.10;99.90
27741;DHT22;15134;48.768;9.184;2024-01-27T13:47:22;9.10;99.90
27741;DHT22;15134;48.768;9.184;2024-01-27T13:49:48;9.20;99.90
27741;DHT22;15134;48.768;9.184;2024-01-27T13:52:14;9.10;99.90
27741;DHT22;15134;48.768;9.184;2024-01-27T13:54:40;9.20;99.90
27741;DHT22;15134;48.768;9.184;2024-01-27T13:57:06;9.20;99.90
27741;DHT22;15134;48.768;9.184;2024-01-27T13:59:32;9.20;99.90
27741;DHT22;15134;48.768;9.184;2024-01-27T14:01:58;9.10;99.90
27741;DHT22;15134;48.768;9.184;2024-01-27T14:04:25;9.00;99.90
27741;DHT22;15134;48.768;9.184;2024-01-27T14:06:51;8.90;99.90
27741;DHT22;15134;48.768;9.184;2024-01-27T14:09:19;8.90;99.90
27741;DHT22;15134;48.768;9.184;2024-01-27T14:11:45;8.80;99.90
27741;DHT22;15134;48.768;9.184;2024-01-27T14:14:11;8.70;99.90
27741;DHT22;15134;48.768;9.184;2024-01-27T14:16:37;8.60;99.90
27741;DHT22;15134;48.768;9.184;2024-01-27T14:19:02;8.60;99.90
27741;DHT22;15134;48.768;9.184;2024-01-27T14:21:28;8.50;99.90
27741;DHT22;15134;48.768;9.184;2024-01-27T14:23:54;8.40;99.90
27741;DHT22;15134;48.768;9.184;2024-01-27T14:26:28;8.30;99.90
27741;DHT22;15134;48.768;9.184;2024-01-27T14:28:54;8.20;99.90
27741;DHT22;15134;48.768;9.184;2024-01-27T14:31:21;8.20;99.90
27741;DHT22;15134;48.768;9.184;2024-01-27T14:33:47;8.30;99.90
27741;DHT22;15134;48.768;9.184;2024-01-27T14:36:14;8.30;99.90
27741;DHT22;15134;48.768;9.184;2024-01-27T14:38:40;8.20;99.90
27741;DHT22;15134;48.768;9.184;2024-01-27T14:41:09;8.20;99.90
27741;DHT22;15134;48.768;9.184;2024-01-27T14:43:38;8.20;99.90
27741;DHT22;15134;48.768;9.184;2024-01-27T14:46:05;8.30;99.90
27741;DHT22;15134;48.768;9.184;2024-01-27T14:48:31;8.10;99.90
27741;DHT22;15134;48.768;9.184;2024-01-27T14:50:57;8.10;99.90
27741;DHT22;15134;48.768;9.184;2024-01-27T14:53:33;8.10;99.90
27741;DHT22;15134;48.768;9.184;2024-01-27T14:55:59;8.10;99.90
27741;DHT22;15134;48.768;9.184;2024-01-27T14:58:25;8.10;99.90
27741;DHT22;15134;48.768;9.184;2024-01-27T15:00:52;8.10;99.90
27741;DHT22;15134;48.768;9.184;2024-01-27T15:03:22;8.10;99.90
27741;DHT22;15134;48.768;9.184;2024-01-27T15:05:51;8.00;99.90
27741;DHT22;15134;48.768;9.184;2024-01-27T15:08:17;8.00;99.90
27741;DHT22;15134;48.768;9.184;2024-01-27T15:10:43;8.00;99.90
27741;DHT22;15134;48.768;9.184;2024-01-27T15:13:10;7.90;99.90
27741;DHT22;15134;48.768;9.184;2024-01-27T15:15:37;8.00;99.90
27741;DHT22;15134;48.768;9.184;2024-01-27T15:18:04;7.90;99.90
27741;DHT22;15134;48.768;9.184;2024-01-27T15:20:30;8.00;99.90
27741;DHT22;15134;48.768;9.184;2024-01-27T15:25:32;8.00;99.90
27741;DHT22;15134;48.768;9.184;2024-01-27T15:27:58;7.90;99.90
27741;DHT22;15134;48.768;9.184;2024-01-27T15:30:24;7.90;99.90
27741;DHT22;15134;48.768;9.184;2024-01-27T15:32:49;7.90;99.90
27741;DHT22;15134;48.768;9.184;2024-01-27T15:35:15;7.90;99.90
27741;DHT22;15134;48.768;9.184;2024-01-27T15:37:41;8.00;99.90
27741;DHT22;15134;48.768;9.184;2024-01-27T15:40:08;7.90;99.90
27741;DHT22;15134;48.768;9.184;2024-01-27T15:42:35;7.80;99.90
27741;DHT22;15134;48.768;9.184;2024-01-27T15:45:03;7.80;99.90